createdAt,value
2023-06-10T00:02:56.944Z,99006.25
2023-06-10T00:06:00.821Z,99006.31
2023-06-10T00:09:11.245Z,99008.44
2023-06-10T00:12:16.170Z,99007.66
2023-06-10T00:15:20.049Z,99003.97
2023-06-10T00:18:23.792Z,99001.63
2023-06-10T00:21:27.670Z,99002.38
2023-06-10T00:24:33.091Z,99004.03
2023-06-10T00:27:37.351Z,99011.91
2023-06-10T00:30:41.217Z,99001.63
2023-06-10T00:33:47.649Z,99004.28
2023-06-10T00:36:51.813Z,99001.19
2023-06-10T00:39:56.955Z,98996.53
2023-06-10T00:43:00.965Z,99004.84
2023-06-10T00:46:04.996Z,98996.31
2023-06-10T00:49:09.404Z,99010.72
2023-06-10T00:52:17.166Z,99004.66
2023-06-10T00:55:22.622Z,99004.03
2023-06-10T00:58:26.900Z,98990.19
2023-06-10T01:01:32.090Z,98999.09
2023-06-10T01:04:39.102Z,98997.50
2023-06-10T01:07:50.060Z,99004.88
2023-06-10T01:11:00.557Z,99011.56
2023-06-10T01:14:08.854Z,99007.50
2023-06-10T01:17:12.962Z,99017.59
2023-06-10T01:20:18.549Z,99016.84
2023-06-10T01:23:23.821Z,99009.25
2023-06-10T01:26:33.562Z,99012.41
2023-06-10T01:29:44.169Z,99005.44
2023-06-10T01:32:51.259Z,99003.75
2023-06-10T01:35:56.498Z,99014.69
2023-06-10T01:39:03.184Z,99013.75
2023-06-10T01:42:08.333Z,99017.34
2023-06-10T01:45:13.808Z,99009.81
2023-06-10T01:48:18.668Z,99009.00
2023-06-10T01:51:22.702Z,99010.47
2023-06-10T01:54:28.570Z,99006.13
2023-06-10T01:57:32.649Z,99012.84
2023-06-10T02:00:36.814Z,99011.44
2023-06-10T02:03:41.021Z,99013.66
2023-06-10T02:06:46.680Z,99014.91
2023-06-10T02:09:52.362Z,99015.50
2023-06-10T02:12:56.571Z,99015.94
2023-06-10T02:16:01.358Z,99016.00
2023-06-10T02:19:08.041Z,99025.91
2023-06-10T02:22:12.734Z,99013.13
2023-06-10T02:25:18.414Z,99024.28
2023-06-10T02:28:22.420Z,99018.97
2023-06-10T02:31:27.052Z,99027.38
2023-06-10T02:34:32.527Z,99017.81
2023-06-10T02:37:37.681Z,99017.50
2023-06-10T02:40:43.566Z,99017.28
2023-06-10T02:43:49.407Z,99023.81
2023-06-10T02:46:54.113Z,99025.56
2023-06-10T02:49:58.745Z,99025.53
2023-06-10T02:53:03.101Z,99030.19
2023-06-10T02:56:13.091Z,99032.78
2023-06-10T02:59:17.580Z,99038.94
2023-06-10T03:02:21.930Z,99036.50
2023-06-10T03:05:29.364Z,99034.47
2023-06-10T03:08:36.541Z,99040.13
2023-06-10T03:11:46.732Z,99051.41
2023-06-10T03:14:51.121Z,99043.00
2023-06-10T03:17:55.914Z,99047.44
2023-06-10T03:21:01.552Z,99050.56
2023-06-10T03:24:06.739Z,99049.84
2023-06-10T03:27:15.000Z,99044.16
2023-06-10T03:30:22.181Z,99047.81
2023-06-10T03:33:27.542Z,99042.75
2023-06-10T03:36:31.951Z,99047.03
2023-06-10T03:39:36.288Z,99037.25
2023-06-10T03:42:42.092Z,99048.69
2023-06-10T03:45:47.090Z,99050.00
2023-06-10T03:48:51.250Z,99048.31
2023-06-10T03:51:56.517Z,99048.88
2023-06-10T03:55:00.934Z,99052.56
2023-06-10T03:58:07.103Z,99055.13
2023-06-10T04:01:12.073Z,99048.78
2023-06-10T04:04:19.239Z,99049.69
2023-06-10T04:07:25.180Z,99049.94
2023-06-10T04:10:29.197Z,99041.00
2023-06-10T04:13:34.753Z,99039.09
2023-06-10T04:16:39.840Z,99041.19
2023-06-10T04:19:44.120Z,99050.53
2023-06-10T04:22:48.289Z,99051.16
2023-06-10T04:25:53.647Z,99049.78
2023-06-10T04:28:59.594Z,99043.13
2023-06-10T04:32:03.844Z,99048.31
2023-06-10T04:35:11.595Z,99042.78
2023-06-10T04:38:16.152Z,99042.00
2023-06-10T04:41:21.079Z,99037.59
2023-06-10T04:44:26.678Z,99028.69
2023-06-10T04:47:34.779Z,99032.44
2023-06-10T04:50:39.050Z,99029.53
2023-06-10T04:53:43.008Z,99033.72
2023-06-10T04:56:47.113Z,99034.81
2023-06-10T04:59:52.973Z,99035.66
2023-06-10T05:02:57.644Z,99034.09
2023-06-10T05:06:02.018Z,99036.75
2023-06-10T05:09:06.768Z,99040.75
2023-06-10T05:12:11.877Z,99047.50
2023-06-10T05:15:17.588Z,99044.06
2023-06-10T05:18:21.733Z,99038.72
2023-06-10T05:21:26.033Z,99038.16
2023-06-10T05:24:30.189Z,99035.97
2023-06-10T05:27:34.458Z,99034.25
2023-06-10T05:30:40.494Z,99029.84
2023-06-10T05:33:44.724Z,99031.00
2023-06-10T05:36:48.857Z,99038.31
2023-06-10T05:39:53.036Z,99038.31
2023-06-10T05:42:57.295Z,99041.16
2023-06-10T05:46:03.116Z,99031.63
2023-06-10T05:49:07.250Z,99035.81
2023-06-10T05:52:11.661Z,99042.28
2023-06-10T05:55:15.862Z,99046.06
2023-06-10T05:58:20.129Z,99044.84
2023-06-10T06:01:26.307Z,99036.00
2023-06-10T06:04:30.568Z,99045.09
2023-06-10T06:07:35.934Z,99043.97
2023-06-10T06:10:40.073Z,99055.69
2023-06-10T06:13:44.200Z,99062.53
2023-06-10T06:16:49.893Z,99051.56
2023-06-10T06:19:54.140Z,99055.50
2023-06-10T06:22:58.368Z,99062.44
2023-06-10T06:26:03.409Z,99054.22
2023-06-10T06:29:07.571Z,99056.22
2023-06-10T06:32:13.370Z,99061.00
2023-06-10T06:35:17.476Z,99054.91
2023-06-10T06:38:21.746Z,99049.66
2023-06-10T06:41:27.098Z,99045.00
2023-06-10T06:44:31.310Z,99046.22
2023-06-10T06:47:37.052Z,99045.13
2023-06-10T06:50:43.254Z,99043.69
2023-06-10T06:53:47.504Z,99045.94
2023-06-10T06:56:51.793Z,99036.56
2023-06-10T06:59:55.867Z,99038.81
2023-06-10T07:03:01.797Z,99026.72
2023-06-10T07:06:06.459Z,99024.31
2023-06-10T07:09:11.325Z,99023.44
2023-06-10T07:12:15.520Z,99018.66
2023-06-10T07:15:19.810Z,99016.22
2023-06-10T07:18:25.465Z,99022.72
2023-06-10T07:21:30.178Z,99016.72
2023-06-10T07:24:34.209Z,99010.50
2023-06-10T07:27:38.802Z,98999.09
2023-06-10T07:30:43.115Z,99001.28
2023-06-10T07:33:50.007Z,99002.88
2023-06-10T07:36:54.101Z,99010.84
2023-06-10T07:39:59.165Z,99005.97
2023-06-10T07:43:03.428Z,99012.31
2023-06-10T07:46:08.028Z,99010.69
2023-06-10T07:49:13.773Z,99012.13
2023-06-10T07:52:18.133Z,99003.47
2023-06-10T07:55:22.516Z,99012.63
2023-06-10T07:58:26.704Z,99008.50
2023-06-10T08:01:31.664Z,99009.66
2023-06-10T08:04:37.828Z,99011.41
2023-06-10T08:07:43.137Z,99002.25
2023-06-10T08:10:48.281Z,99003.84
2023-06-10T08:13:52.425Z,98999.22
2023-06-10T08:16:56.764Z,99003.25
2023-06-10T08:20:03.114Z,98999.25
2023-06-10T08:23:07.270Z,98997.53
2023-06-10T08:26:11.572Z,99001.06
2023-06-10T08:29:16.028Z,98998.31
2023-06-10T08:32:20.272Z,99004.44
2023-06-10T08:35:26.182Z,99007.94
2023-06-10T08:38:30.431Z,99000.69
2023-06-10T08:41:39.714Z,98999.75
2023-06-10T08:44:45.083Z,98989.19
2023-06-10T08:47:53.430Z,98990.97
2023-06-10T08:51:00.694Z,98990.84
2023-06-10T08:54:08.553Z,98987.75
2023-06-10T08:57:12.973Z,98978.41
2023-06-10T09:00:18.744Z,98971.66
2023-06-10T09:03:25.676Z,98971.72
2023-06-10T09:06:31.752Z,98972.25
2023-06-10T09:09:38.084Z,98965.69
2023-06-10T09:12:42.265Z,98970.75
2023-06-10T09:15:47.306Z,98957.25
2023-06-10T09:18:56.612Z,98965.41
2023-06-10T09:22:02.423Z,98963.88
2023-06-10T09:25:09.521Z,98958.72
2023-06-10T09:28:16.712Z,98957.34
2023-06-10T09:31:23.321Z,98956.78
2023-06-10T09:34:29.193Z,98954.88
2023-06-10T09:37:34.893Z,98953.25
2023-06-10T09:40:52.565Z,98958.69
2023-06-10T09:43:56.813Z,98962.81
2023-06-10T09:47:01.317Z,98968.16
2023-06-10T09:50:07.296Z,98967.69
2023-06-10T09:53:14.935Z,98959.97
2023-06-10T09:56:19.224Z,98959.44
2023-06-10T09:59:33.466Z,98962.38
2023-06-10T10:02:48.948Z,98966.63
2023-06-10T10:06:02.166Z,98957.91
2023-06-10T10:09:08.969Z,98961.13
2023-06-10T10:12:14.541Z,98960.38
2023-06-10T10:15:20.442Z,98963.38
2023-06-10T10:18:30.355Z,98969.25
2023-06-10T10:21:46.426Z,98962.91
2023-06-10T10:24:54.292Z,98959.06
2023-06-10T10:28:02.196Z,98957.44
2023-06-10T10:31:13.348Z,98946.16
2023-06-10T10:34:22.025Z,98946.72
2023-06-10T10:37:26.976Z,98956.06
2023-06-10T10:40:34.116Z,98948.00
2023-06-10T10:43:38.743Z,98942.97
2023-06-10T10:46:46.764Z,98936.91
2023-06-10T10:49:54.153Z,98942.91
2023-06-10T10:53:02.488Z,98950.09
2023-06-10T10:56:12.190Z,98941.91
2023-06-10T10:59:21.315Z,98945.19
2023-06-10T11:02:44.693Z,98931.72
2023-06-10T11:05:51.208Z,98939.97
2023-06-10T11:08:56.203Z,98934.81
2023-06-10T11:12:03.370Z,98928.16
2023-06-10T11:15:08.608Z,98933.59
2023-06-10T11:18:22.473Z,98933.63
2023-06-10T11:21:29.144Z,98928.88
2023-06-10T11:24:35.459Z,98926.34
2023-06-10T11:27:42.467Z,98918.44
2023-06-10T11:30:46.792Z,98927.81
2023-06-10T11:33:54.945Z,98920.09
2023-06-10T11:37:00.812Z,98921.16
2023-06-10T11:40:05.944Z,98913.81
2023-06-10T11:43:11.580Z,98905.44
2023-06-10T11:46:16.957Z,98910.00
2023-06-10T11:49:23.226Z,98904.75
2023-06-10T11:52:30.614Z,98898.69
2023-06-10T11:55:48.228Z,98887.94
2023-06-10T11:58:58.647Z,98892.44
2023-06-10T12:02:03.040Z,98887.38
2023-06-10T12:05:13.995Z,98895.34
2023-06-10T12:08:18.266Z,98887.75
2023-06-10T12:11:24.532Z,98890.25
2023-06-10T12:14:56.708Z,98883.84
2023-06-10T12:18:01.258Z,98881.81
2023-06-10T12:21:06.057Z,98872.88
2023-06-10T12:24:12.602Z,98870.66
2023-06-10T12:27:16.853Z,98872.00
2023-06-10T12:30:23.897Z,98871.97
2023-06-10T12:33:28.025Z,98865.41
2023-06-10T12:36:33.932Z,98862.31
2023-06-10T12:39:38.096Z,98858.34
2023-06-10T12:42:43.250Z,98843.09
2023-06-10T12:45:48.983Z,98852.66
2023-06-10T12:48:55.700Z,98841.31
2023-06-10T12:51:59.731Z,98844.44
2023-06-10T12:55:05.655Z,98844.69
2023-06-10T12:58:09.877Z,98843.00
2023-06-10T13:01:15.899Z,98835.91
2023-06-10T13:04:20.156Z,98837.28
2023-06-10T13:07:24.982Z,98835.75
2023-06-10T13:10:29.315Z,98836.53
2023-06-10T13:13:33.579Z,98833.59
2023-06-10T13:16:39.677Z,98839.09
2023-06-10T13:19:43.976Z,98835.41
2023-06-10T13:22:49.138Z,98841.63
2023-06-10T13:25:53.387Z,98830.81
2023-06-10T13:28:57.633Z,98835.28
2023-06-10T13:32:03.269Z,98819.94
2023-06-10T13:35:09.160Z,98832.22
2023-06-10T13:38:13.995Z,98818.16
2023-06-10T13:41:18.491Z,98826.16
2023-06-10T13:44:22.630Z,98821.09
2023-06-10T13:47:28.342Z,98820.84
2023-06-10T13:50:32.633Z,98818.06
2023-06-10T13:53:36.841Z,98820.63
2023-06-10T13:56:41.043Z,98823.94
2023-06-10T13:59:45.354Z,98802.50
2023-06-10T14:02:51.151Z,98806.34
2023-06-10T14:05:55.364Z,98804.78
2023-06-10T14:08:59.699Z,98812.69
2023-06-10T14:12:05.029Z,98807.09
2023-06-10T14:15:10.461Z,98802.25
2023-06-10T14:18:16.380Z,98805.34
2023-06-10T14:21:20.596Z,98804.50
2023-06-10T14:24:25.162Z,98802.63
2023-06-10T14:27:29.350Z,98800.63
2023-06-10T14:30:33.530Z,98794.75
2023-06-10T14:33:39.133Z,98791.03
2023-06-10T14:36:43.283Z,98800.28
2023-06-10T14:39:47.421Z,98799.28
2023-06-10T14:42:51.588Z,98788.19
2023-06-10T14:45:57.369Z,98785.59
2023-06-10T14:49:03.982Z,98785.38
2023-06-10T14:52:08.632Z,98781.66
2023-06-10T14:55:12.934Z,98773.09
2023-06-10T14:58:17.584Z,98775.72
2023-06-10T15:01:21.737Z,98776.19
2023-06-10T15:04:27.513Z,98780.41
2023-06-10T15:07:31.847Z,98774.47
2023-06-10T15:10:36.032Z,98769.44
2023-06-10T15:13:40.161Z,98777.38
2023-06-10T15:16:44.333Z,98775.34
2023-06-10T15:19:50.054Z,98765.19
2023-06-10T15:22:55.191Z,98777.34
2023-06-10T15:25:59.354Z,98780.94
2023-06-10T15:29:05.861Z,98780.63
2023-06-10T15:32:18.338Z,98780.63
2023-06-10T15:35:25.006Z,98780.22
2023-06-10T15:38:29.305Z,98780.94
2023-06-10T15:41:33.458Z,98768.84
2023-06-10T15:44:37.658Z,98774.97
2023-06-10T15:47:42.976Z,98775.63
2023-06-10T15:50:48.771Z,98785.66
2023-06-10T15:53:53.036Z,98778.09
2023-06-10T15:56:57.105Z,98778.72
2023-06-10T16:00:01.401Z,98782.44
2023-06-10T16:03:09.026Z,98779.19
2023-06-10T16:06:14.688Z,98787.09
2023-06-10T16:09:19.205Z,98794.53
2023-06-10T16:12:23.516Z,98790.66
2023-06-10T16:15:27.629Z,98788.13
2023-06-10T16:18:31.894Z,98787.66
2023-06-10T16:21:41.223Z,98784.25
2023-06-10T16:24:45.484Z,98779.06
2023-06-10T16:27:49.541Z,98787.50
2023-06-10T16:30:53.846Z,98786.47
2023-06-10T16:33:58.113Z,98785.41
2023-06-10T16:37:04.321Z,98788.63
2023-06-10T16:40:09.675Z,98784.84
2023-06-10T16:43:13.862Z,98785.19
2023-06-10T16:46:18.240Z,98792.44
2023-06-10T16:49:22.680Z,98787.09
2023-06-10T16:52:28.283Z,98795.94
2023-06-10T16:55:32.473Z,98798.09
2023-06-10T16:58:36.642Z,98802.13
2023-06-10T17:01:40.888Z,98800.00
2023-06-10T17:04:45.071Z,98805.38
2023-06-10T17:07:51.072Z,98801.84
2023-06-10T17:10:55.210Z,98801.06
2023-06-10T17:13:59.467Z,98810.72
2023-06-10T17:17:04.526Z,98810.97
2023-06-10T17:20:09.795Z,98804.53
2023-06-10T17:23:15.601Z,98805.09
2023-06-10T17:26:19.867Z,98813.63
2023-06-10T17:29:24.287Z,98809.66
2023-06-10T17:32:28.583Z,98812.59
2023-06-10T17:35:32.798Z,98812.84
2023-06-10T17:38:38.508Z,98811.00
2023-06-10T17:41:42.575Z,98820.34
2023-06-10T17:44:46.727Z,98828.66
2023-06-10T17:47:51.060Z,98842.09
2023-06-10T17:50:55.299Z,98843.16
2023-06-10T17:54:00.929Z,98846.34
2023-06-10T17:57:05.343Z,98850.09
2023-06-10T18:00:10.648Z,98857.00
2023-06-10T18:03:16.886Z,98856.19
2023-06-10T18:06:21.161Z,98857.41
2023-06-10T18:09:27.357Z,98864.91
2023-06-10T18:12:31.477Z,98869.47
2023-06-10T18:15:37.750Z,98872.34
2023-06-10T18:18:44.077Z,98880.66
2023-06-10T18:21:48.062Z,98884.41
2023-06-10T18:24:53.776Z,98890.53
2023-06-10T18:27:57.926Z,98897.47
2023-06-10T18:31:03.276Z,98898.84
2023-06-10T18:34:07.473Z,98903.13
2023-06-10T18:37:11.677Z,98902.66
2023-06-10T18:40:19.320Z,98901.31
2023-06-10T18:43:23.522Z,98902.31
2023-06-10T18:46:27.769Z,98902.66
2023-06-10T18:49:32.058Z,98909.81
2023-06-10T18:52:36.298Z,98916.34
2023-06-10T18:55:41.906Z,98909.50
2023-06-10T18:58:48.041Z,98926.94
2023-06-10T19:01:53.166Z,98916.81
2023-06-10T19:04:57.278Z,98916.34
2023-06-10T19:08:02.162Z,98908.81
2023-06-10T19:11:09.020Z,98910.50
2023-06-10T19:14:13.531Z,98904.88
2023-06-10T19:17:17.986Z,98901.25
2023-06-10T19:20:22.456Z,98905.94
2023-06-10T19:23:26.736Z,98908.56
2023-06-10T19:26:32.593Z,98907.25
2023-06-10T19:29:36.756Z,98902.25
2023-06-10T19:32:41.219Z,98897.94
2023-06-10T19:35:45.598Z,98896.03
2023-06-10T19:38:49.833Z,98892.63
2023-06-10T19:41:55.504Z,98892.53
2023-06-10T19:44:59.587Z,98886.53
2023-06-10T19:48:03.975Z,98895.28
2023-06-10T19:51:08.253Z,98883.38
2023-06-10T19:54:12.378Z,98885.22
2023-06-10T19:57:18.144Z,98887.03
2023-06-10T20:00:22.306Z,98884.78
2023-06-10T20:03:26.659Z,98881.81
2023-06-10T20:06:30.904Z,98879.47
2023-06-10T20:09:36.135Z,98882.75
2023-06-10T20:12:41.967Z,98883.31
2023-06-10T20:15:46.139Z,98885.19
2023-06-10T20:18:53.952Z,98889.63
2023-06-10T20:21:58.132Z,98888.41
2023-06-10T20:25:02.548Z,98888.03
2023-06-10T20:28:08.691Z,98883.47
2023-06-10T20:31:12.875Z,98886.16
2023-06-10T20:34:17.090Z,98884.78
2023-06-10T20:37:21.307Z,98893.69
2023-06-10T20:40:25.534Z,98897.50
2023-06-10T20:43:31.192Z,98900.97
2023-06-10T20:46:35.483Z,98894.44
2023-06-10T20:49:39.649Z,98896.31
2023-06-10T20:52:43.843Z,98900.06
2023-06-10T20:55:48.130Z,98910.56
2023-06-10T20:58:53.806Z,98910.69
2023-06-10T21:01:58.083Z,98909.47
2023-06-10T21:05:02.440Z,98918.41
2023-06-10T21:08:07.657Z,98915.19
2023-06-10T21:11:11.967Z,98914.69
2023-06-10T21:14:17.540Z,98907.91
2023-06-10T21:17:21.839Z,98910.69
2023-06-10T21:20:25.956Z,98908.34
2023-06-10T21:23:30.176Z,98907.03
2023-06-10T21:26:36.167Z,98897.34
2023-06-10T21:29:42.381Z,98896.56
2023-06-10T21:32:47.226Z,98896.47
2023-06-10T21:35:51.643Z,98902.44
2023-06-10T21:38:55.897Z,98899.22
2023-06-10T21:42:00.077Z,98899.59
2023-06-10T21:45:06.341Z,98894.31
2023-06-10T21:48:11.930Z,98895.75
2023-06-10T21:51:16.218Z,98893.81
2023-06-10T21:54:20.597Z,98888.47
2023-06-10T21:57:25.463Z,98883.97
2023-06-10T22:00:31.183Z,98883.16
2023-06-10T22:03:35.360Z,98884.19
2023-06-10T22:06:39.607Z,98879.94
2023-06-10T22:09:49.440Z,98867.16
2023-06-10T22:12:53.655Z,98873.78
2023-06-10T22:15:59.269Z,98868.34
2023-06-10T22:19:03.468Z,98868.19
2023-06-10T22:22:08.652Z,98876.47
2023-06-10T22:25:12.910Z,98876.59
2023-06-10T22:28:17.418Z,98870.88
2023-06-10T22:31:23.143Z,98866.78
2023-06-10T22:34:27.435Z,98863.00
2023-06-10T22:37:31.555Z,98859.34
2023-06-10T22:40:35.783Z,98864.50
2023-06-10T22:43:39.843Z,98852.13
2023-06-10T22:46:45.544Z,98854.03
2023-06-10T22:49:49.734Z,98858.72
2023-06-10T22:52:54.932Z,98851.47
2023-06-10T22:55:59.152Z,98853.31
2023-06-10T22:59:03.984Z,98852.03
2023-06-10T23:02:09.880Z,98852.31
2023-06-10T23:05:14.261Z,98851.69
2023-06-10T23:08:18.547Z,98856.50
2023-06-10T23:11:22.641Z,98855.66
2023-06-10T23:14:26.858Z,98852.88
2023-06-10T23:17:32.496Z,98848.41
2023-06-10T23:20:37.096Z,98842.09
2023-06-10T23:23:42.119Z,98841.69
2023-06-10T23:26:46.339Z,98848.13
2023-06-10T23:32:59.916Z,98845.94
2023-06-10T23:36:04.516Z,98837.78
2023-06-10T23:39:08.641Z,98831.00
2023-06-10T23:42:12.782Z,98832.19
2023-06-10T23:45:17.098Z,98826.25
2023-06-10T23:48:22.709Z,98823.06
2023-06-10T23:51:26.754Z,98824.53
2023-06-10T23:54:30.979Z,98828.72
2023-06-10T23:57:35.106Z,98827.59
